sensor_id;sensor_type;location;lat;lon;timestamp;pressure;altitude;pressure_sealevel;temperature
15575;BMP180;7888;46.748;8.102;2022-07-09T00:01:02;95088.00;;;22.20
15575;BMP180;7888;46.748;8.102;2022-07-09T00:03:28;95091.00;;;22.20
15575;BMP180;7888;46.748;8.102;2022-07-09T00:05:54;95096.00;;;22.30
15575;BMP180;7888;46.748;8.102;2022-07-09T00:08:20;95091.00;;;22.30
15575;BMP180;7888;46.748;8.102;2022-07-09T00:10:46;95084.00;;;22.30
15575;BMP180;7888;46.748;8.102;2022-07-09T00:13:12;95095.00;;;22.20
15575;BMP180;7888;46.748;8.102;2022-07-09T00:15:37;95090.00;;;22.20
15575;BMP180;7888;46.748;8.102;2022-07-09T00:18:03;95098.00;;;22.30
15575;BMP180;7888;46.748;8.102;2022-07-09T00:20:29;95095.00;;;22.30
15575;BMP180;7888;46.748;8.102;2022-07-09T00:22:55;95092.00;;;22.30
15575;BMP180;7888;46.748;8.102;2022-07-09T00:25:20;95090.00;;;22.30
15575;BMP180;7888;46.748;8.102;2022-07-09T00:27:46;95089.00;;;22.30
15575;BMP180;7888;46.748;8.102;2022-07-09T00:30:12;95095.00;;;22.30
15575;BMP180;7888;46.748;8.102;2022-07-09T00:32:38;95061.00;;;22.20
15575;BMP180;7888;46.748;8.102;2022-07-09T00:35:05;95076.00;;;22.20
15575;BMP180;7888;46.748;8.102;2022-07-09T00:37:31;95097.00;;;22.20
15575;BMP180;7888;46.748;8.102;2022-07-09T00:39:57;95086.00;;;22.10
15575;BMP180;7888;46.748;8.102;2022-07-09T00:42:23;95095.00;;;22.10
15575;BMP180;7888;46.748;8.102;2022-07-09T00:44:51;95092.00;;;22.00
15575;BMP180;7888;46.748;8.102;2022-07-09T00:47:17;95072.00;;;22.00
15575;BMP180;7888;46.748;8.102;2022-07-09T00:49:43;95092.00;;;22.00
15575;BMP180;7888;46.748;8.102;2022-07-09T00:52:14;95078.00;;;22.00
15575;BMP180;7888;46.748;8.102;2022-07-09T00:54:41;95084.00;;;22.00
15575;BMP180;7888;46.748;8.102;2022-07-09T00:57:09;95085.00;;;21.90
15575;BMP180;7888;46.748;8.102;2022-07-09T00:59:37;95080.00;;;21.90
15575;BMP180;7888;46.748;8.102;2022-07-09T01:02:06;95075.00;;;21.90
15575;BMP180;7888;46.748;8.102;2022-07-09T01:04:32;95080.00;;;21.80
15575;BMP180;7888;46.748;8.102;2022-07-09T01:06:58;95072.00;;;21.80
15575;BMP180;7888;46.748;8.102;2022-07-09T01:09:26;95075.00;;;21.80
15575;BMP180;7888;46.748;8.102;2022-07-09T01:11:52;95064.00;;;21.80
15575;BMP180;7888;46.748;8.102;2022-07-09T01:14:19;95051.00;;;21.70
15575;BMP180;7888;46.748;8.102;2022-07-09T01:16:44;95067.00;;;21.70
15575;BMP180;7888;46.748;8.102;2022-07-09T01:19:10;95068.00;;;21.70
15575;BMP180;7888;46.748;8.102;2022-07-09T01:21:36;95067.00;;;21.70
15575;BMP180;7888;46.748;8.102;2022-07-09T01:24:02;95073.00;;;21.60
15575;BMP180;7888;46.748;8.102;2022-07-09T01:26:28;95072.00;;;21.60
15575;BMP180;7888;46.748;8.102;2022-07-09T01:28:54;95071.00;;;21.60
15575;BMP180;7888;46.748;8.102;2022-07-09T01:31:20;95064.00;;;21.50
15575;BMP180;7888;46.748;8.102;2022-07-09T01:33:46;95063.00;;;21.50
15575;BMP180;7888;46.748;8.102;2022-07-09T01:36:12;95050.00;;;21.50
15575;BMP180;7888;46.748;8.102;2022-07-09T01:38:38;95054.00;;;21.40
15575;BMP180;7888;46.748;8.102;2022-07-09T01:41:04;95054.00;;;21.40
15575;BMP180;7888;46.748;8.102;2022-07-09T01:43:30;95043.00;;;21.40
15575;BMP180;7888;46.748;8.102;2022-07-09T01:45:59;95049.00;;;21.40
15575;BMP180;7888;46.748;8.102;2022-07-09T01:48:29;95057.00;;;21.30
15575;BMP180;7888;46.748;8.102;2022-07-09T01:50:55;95053.00;;;21.30
15575;BMP180;7888;46.748;8.102;2022-07-09T01:53:21;95045.00;;;21.20
15575;BMP180;7888;46.748;8.102;2022-07-09T01:55:46;95054.00;;;21.20
15575;BMP180;7888;46.748;8.102;2022-07-09T01:58:12;95045.00;;;21.20
15575;BMP180;7888;46.748;8.102;2022-07-09T02:00:40;95052.00;;;21.10
15575;BMP180;7888;46.748;8.102;2022-07-09T02:03:06;95052.00;;;21.10
15575;BMP180;7888;46.748;8.102;2022-07-09T02:05:32;95049.00;;;21.10
15575;BMP180;7888;46.748;8.102;2022-07-09T02:07:57;95050.00;;;21.10
15575;BMP180;7888;46.748;8.102;2022-07-09T02:10:23;95051.00;;;21.10
15575;BMP180;7888;46.748;8.102;2022-07-09T02:12:49;95045.00;;;21.00
15575;BMP180;7888;46.748;8.102;2022-07-09T02:15:15;95040.00;;;21.00
15575;BMP180;7888;46.748;8.102;2022-07-09T02:17:41;95042.00;;;21.00
15575;BMP180;7888;46.748;8.102;2022-07-09T02:20:07;95022.00;;;20.90
15575;BMP180;7888;46.748;8.102;2022-07-09T02:22:34;95034.00;;;20.90
15575;BMP180;7888;46.748;8.102;2022-07-09T02:25:00;95038.00;;;20.90
15575;BMP180;7888;46.748;8.102;2022-07-09T02:27:26;95037.00;;;20.90
15575;BMP180;7888;46.748;8.102;2022-07-09T02:29:52;95038.00;;;20.90
15575;BMP180;7888;46.748;8.102;2022-07-09T02:32:18;95042.00;;;20.80
15575;BMP180;7888;46.748;8.102;2022-07-09T02:34:44;95041.00;;;20.80
15575;BMP180;7888;46.748;8.102;2022-07-09T02:37:10;95029.00;;;20.80
15575;BMP180;7888;46.748;8.102;2022-07-09T02:39:36;95039.00;;;20.80
15575;BMP180;7888;46.748;8.102;2022-07-09T02:42:02;95029.00;;;20.80
15575;BMP180;7888;46.748;8.102;2022-07-09T02:44:28;95050.00;;;20.70
15575;BMP180;7888;46.748;8.102;2022-07-09T02:46:54;95036.00;;;20.70
15575;BMP180;7888;46.748;8.102;2022-07-09T02:49:20;95044.00;;;20.70
15575;BMP180;7888;46.748;8.102;2022-07-09T02:51:49;95041.00;;;20.70
15575;BMP180;7888;46.748;8.102;2022-07-09T02:54:14;95040.00;;;20.70
15575;BMP180;7888;46.748;8.102;2022-07-09T02:56:40;95038.00;;;20.70
15575;BMP180;7888;46.748;8.102;2022-07-09T02:59:06;95037.00;;;20.60
15575;BMP180;7888;46.748;8.102;2022-07-09T03:01:32;95034.00;;;20.60
15575;BMP180;7888;46.748;8.102;2022-07-09T03:03:58;95038.00;;;20.60
15575;BMP180;7888;46.748;8.102;2022-07-09T03:06:23;95014.00;;;20.60
15575;BMP180;7888;46.748;8.102;2022-07-09T03:08:49;95034.00;;;20.50
15575;BMP180;7888;46.748;8.102;2022-07-09T03:11:15;95041.00;;;20.50
15575;BMP180;7888;46.748;8.102;2022-07-09T03:13:42;95031.00;;;20.50
15575;BMP180;7888;46.748;8.102;2022-07-09T03:16:07;95033.00;;;20.40
15575;BMP180;7888;46.748;8.102;2022-07-09T03:18:33;95041.00;;;20.40
15575;BMP180;7888;46.748;8.102;2022-07-09T03:21:00;95039.00;;;20.40
15575;BMP180;7888;46.748;8.102;2022-07-09T03:23:25;95037.00;;;20.40
15575;BMP180;7888;46.748;8.102;2022-07-09T03:25:52;95041.00;;;20.40
15575;BMP180;7888;46.748;8.102;2022-07-09T03:28:17;95031.00;;;20.40
15575;BMP180;7888;46.748;8.102;2022-07-09T03:30:43;95045.00;;;20.40
15575;BMP180;7888;46.748;8.102;2022-07-09T03:33:09;95040.00;;;20.40
15575;BMP180;7888;46.748;8.102;2022-07-09T03:35:35;95038.00;;;20.30
15575;BMP180;7888;46.748;8.102;2022-07-09T03:38:01;95038.00;;;20.30
15575;BMP180;7888;46.748;8.102;2022-07-09T03:40:27;95043.00;;;20.30
15575;BMP180;7888;46.748;8.102;2022-07-09T03:42:53;95040.00;;;20.30
15575;BMP180;7888;46.748;8.102;2022-07-09T03:45:19;95039.00;;;20.20
15575;BMP180;7888;46.748;8.102;2022-07-09T03:47:44;95045.00;;;20.20
15575;BMP180;7888;46.748;8.102;2022-07-09T03:50:10;95045.00;;;20.20
15575;BMP180;7888;46.748;8.102;2022-07-09T03:52:38;95041.00;;;20.20
15575;BMP180;7888;46.748;8.102;2022-07-09T03:55:04;95048.00;;;20.20
15575;BMP180;7888;46.748;8.102;2022-07-09T03:57:30;95051.00;;;20.20
15575;BMP180;7888;46.748;8.102;2022-07-09T03:59:56;95041.00;;;20.10
15575;BMP180;7888;46.748;8.102;2022-07-09T04:02:22;95040.00;;;20.10
15575;BMP180;7888;46.748;8.102;2022-07-09T04:04:48;95044.00;;;20.10
15575;BMP180;7888;46.748;8.102;2022-07-09T04:07:14;95041.00;;;20.10
15575;BMP180;7888;46.748;8.102;2022-07-09T04:09:40;95037.00;;;20.10
15575;BMP180;7888;46.748;8.102;2022-07-09T04:12:07;95044.00;;;20.10
15575;BMP180;7888;46.748;8.102;2022-07-09T04:14:33;95036.00;;;20.10
15575;BMP180;7888;46.748;8.102;2022-07-09T04:16:59;95047.00;;;20.10
15575;BMP180;7888;46.748;8.102;2022-07-09T04:19:25;95047.00;;;20.00
15575;BMP180;7888;46.748;8.102;2022-07-09T04:21:51;95040.00;;;20.00
15575;BMP180;7888;46.748;8.102;2022-07-09T04:24:16;95055.00;;;20.00
15575;BMP180;7888;46.748;8.102;2022-07-09T04:26:43;95049.00;;;20.00
15575;BMP180;7888;46.748;8.102;2022-07-09T04:29:09;95051.00;;;20.00
15575;BMP180;7888;46.748;8.102;2022-07-09T04:31:36;95054.00;;;20.00
15575;BMP180;7888;46.748;8.102;2022-07-09T04:34:02;95054.00;;;20.00
15575;BMP180;7888;46.748;8.102;2022-07-09T04:36:28;95064.00;;;20.00
15575;BMP180;7888;46.748;8.102;2022-07-09T04:38:55;95067.00;;;20.00
15575;BMP180;7888;46.748;8.102;2022-07-09T04:41:22;95057.00;;;20.00
15575;BMP180;7888;46.748;8.102;2022-07-09T04:43:48;95061.00;;;20.00
15575;BMP180;7888;46.748;8.102;2022-07-09T04:46:14;95058.00;;;20.00
15575;BMP180;7888;46.748;8.102;2022-07-09T04:48:42;95058.00;;;20.00
15575;BMP180;7888;46.748;8.102;2022-07-09T04:51:07;95046.00;;;20.00
15575;BMP180;7888;46.748;8.102;2022-07-09T04:53:33;95061.00;;;20.00
15575;BMP180;7888;46.748;8.102;2022-07-09T04:55:59;95067.00;;;20.00
15575;BMP180;7888;46.748;8.102;2022-07-09T04:58:25;95051.00;;;20.00
15575;BMP180;7888;46.748;8.102;2022-07-09T05:00:51;95058.00;;;20.00
15575;BMP180;7888;46.748;8.102;2022-07-09T05:03:17;95055.00;;;20.00
15575;BMP180;7888;46.748;8.102;2022-07-09T05:05:42;95048.00;;;20.00
15575;BMP180;7888;46.748;8.102;2022-07-09T05:08:08;95064.00;;;20.10
15575;BMP180;7888;46.748;8.102;2022-07-09T05:10:34;95062.00;;;20.10
15575;BMP180;7888;46.748;8.102;2022-07-09T05:13:00;95042.00;;;20.10
15575;BMP180;7888;46.748;8.102;2022-07-09T05:15:26;95046.00;;;20.10
15575;BMP180;7888;46.748;8.102;2022-07-09T05:17:53;95034.00;;;20.10
15575;BMP180;7888;46.748;8.102;2022-07-09T05:20:18;95056.00;;;20.10
15575;BMP180;7888;46.748;8.102;2022-07-09T05:22:44;95060.00;;;20.10
15575;BMP180;7888;46.748;8.102;2022-07-09T05:25:10;95063.00;;;20.10
15575;BMP180;7888;46.748;8.102;2022-07-09T05:27:44;95063.00;;;20.10
15575;BMP180;7888;46.748;8.102;2022-07-09T05:30:13;95051.00;;;20.20
15575;BMP180;7888;46.748;8.102;2022-07-09T05:32:41;95061.00;;;20.20
15575;BMP180;7888;46.748;8.102;2022-07-09T05:35:08;95060.00;;;20.20
15575;BMP180;7888;46.748;8.102;2022-07-09T05:37:41;95062.00;;;20.20
15575;BMP180;7888;46.748;8.102;2022-07-09T05:40:07;95058.00;;;20.30
15575;BMP180;7888;46.748;8.102;2022-07-09T05:42:33;95061.00;;;20.30
15575;BMP180;7888;46.748;8.102;2022-07-09T05:44:59;95065.00;;;20.30
15575;BMP180;7888;46.748;8.102;2022-07-09T05:47:25;95062.00;;;20.30
15575;BMP180;7888;46.748;8.102;2022-07-09T05:49:51;95072.00;;;20.40
15575;BMP180;7888;46.748;8.102;2022-07-09T05:52:17;95072.00;;;20.40
15575;BMP180;7888;46.748;8.102;2022-07-09T05:54:43;95065.00;;;20.40
15575;BMP180;7888;46.748;8.102;2022-07-09T05:57:09;95059.00;;;20.50
15575;BMP180;7888;46.748;8.102;2022-07-09T05:59:34;95055.00;;;20.50
15575;BMP180;7888;46.748;8.102;2022-07-09T06:02:00;95062.00;;;20.60
15575;BMP180;7888;46.748;8.102;2022-07-09T06:04:28;95038.00;;;20.60
15575;BMP180;7888;46.748;8.102;2022-07-09T06:06:54;95041.00;;;20.70
15575;BMP180;7888;46.748;8.102;2022-07-09T06:09:20;95045.00;;;20.80
15575;BMP180;7888;46.748;8.102;2022-07-09T06:11:46;95064.00;;;20.90
15575;BMP180;7888;46.748;8.102;2022-07-09T06:14:12;95062.00;;;21.00
15575;BMP180;7888;46.748;8.102;2022-07-09T06:16:38;95052.00;;;21.10
15575;BMP180;7888;46.748;8.102;2022-07-09T06:19:03;95065.00;;;21.20
15575;BMP180;7888;46.748;8.102;2022-07-09T06:21:29;95055.00;;;21.30
15575;BMP180;7888;46.748;8.102;2022-07-09T06:23:55;95066.00;;;21.40
15575;BMP180;7888;46.748;8.102;2022-07-09T06:26:21;95064.00;;;21.50
15575;BMP180;7888;46.748;8.102;2022-07-09T06:28:46;95070.00;;;21.60
15575;BMP180;7888;46.748;8.102;2022-07-09T06:31:12;95068.00;;;21.70
15575;BMP180;7888;46.748;8.102;2022-07-09T06:33:38;95076.00;;;21.80
15575;BMP180;7888;46.748;8.102;2022-07-09T06:36:04;95067.00;;;21.90
15575;BMP180;7888;46.748;8.102;2022-07-09T06:38:30;95071.00;;;22.00
15575;BMP180;7888;46.748;8.102;2022-07-09T06:40:56;95028.00;;;22.10
15575;BMP180;7888;46.748;8.102;2022-07-09T06:43:23;95050.00;;;22.20
15575;BMP180;7888;46.748;8.102;2022-07-09T06:45:48;95072.00;;;22.30
15575;BMP180;7888;46.748;8.102;2022-07-09T06:48:14;95070.00;;;22.50
15575;BMP180;7888;46.748;8.102;2022-07-09T06:50:40;95067.00;;;22.60
15575;BMP180;7888;46.748;8.102;2022-07-09T06:53:06;95069.00;;;22.70
15575;BMP180;7888;46.748;8.102;2022-07-09T06:55:32;95074.00;;;22.80
15575;BMP180;7888;46.748;8.102;2022-07-09T06:57:57;95076.00;;;23.00
15575;BMP180;7888;46.748;8.102;2022-07-09T07:00:25;95059.00;;;23.10
15575;BMP180;7888;46.748;8.102;2022-07-09T07:02:51;95063.00;;;23.30
15575;BMP180;7888;46.748;8.102;2022-07-09T07:05:17;95068.00;;;23.40
15575;BMP180;7888;46.748;8.102;2022-07-09T07:07:42;95069.00;;;23.60
15575;BMP180;7888;46.748;8.102;2022-07-09T07:10:09;95048.00;;;23.70
15575;BMP180;7888;46.748;8.102;2022-07-09T07:12:35;95068.00;;;23.90
15575;BMP180;7888;46.748;8.102;2022-07-09T07:15:01;95053.00;;;24.00
15575;BMP180;7888;46.748;8.102;2022-07-09T07:17:26;95055.00;;;24.10
15575;BMP180;7888;46.748;8.102;2022-07-09T07:19:52;95043.00;;;24.30
15575;BMP180;7888;46.748;8.102;2022-07-09T07:22:18;95058.00;;;24.40
15575;BMP180;7888;46.748;8.102;2022-07-09T07:24:44;95052.00;;;24.50
15575;BMP180;7888;46.748;8.102;2022-07-09T07:27:10;95055.00;;;24.70
15575;BMP180;7888;46.748;8.102;2022-07-09T07:29:36;95049.00;;;24.80
15575;BMP180;7888;46.748;8.102;2022-07-09T07:32:02;95052.00;;;24.90
15575;BMP180;7888;46.748;8.102;2022-07-09T07:34:28;95054.00;;;25.00
15575;BMP180;7888;46.748;8.102;2022-07-09T07:36:53;95051.00;;;25.20
15575;BMP180;7888;46.748;8.102;2022-07-09T07:39:20;95049.00;;;25.30
15575;BMP180;7888;46.748;8.102;2022-07-09T07:41:48;95047.00;;;25.50
15575;BMP180;7888;46.748;8.102;2022-07-09T07:44:13;95046.00;;;25.60
15575;BMP180;7888;46.748;8.102;2022-07-09T07:46:39;95044.00;;;25.80
15575;BMP180;7888;46.748;8.102;2022-07-09T07:49:05;95046.00;;;25.90
15575;BMP180;7888;46.748;8.102;2022-07-09T07:51:31;95042.00;;;26.10
15575;BMP180;7888;46.748;8.102;2022-07-09T07:53:56;95039.00;;;26.20
15575;BMP180;7888;46.748;8.102;2022-07-09T07:56:22;95036.00;;;26.30
15575;BMP180;7888;46.748;8.102;2022-07-09T07:58:48;95048.00;;;26.50
15575;BMP180;7888;46.748;8.102;2022-07-09T08:01:14;95035.00;;;26.60
15575;BMP180;7888;46.748;8.102;2022-07-09T08:03:40;95034.00;;;26.70
15575;BMP180;7888;46.748;8.102;2022-07-09T08:06:05;95029.00;;;26.90
15575;BMP180;7888;46.748;8.102;2022-07-09T08:08:33;95029.00;;;27.00
15575;BMP180;7888;46.748;8.102;2022-07-09T08:10:59;95031.00;;;27.20
15575;BMP180;7888;46.748;8.102;2022-07-09T08:13:26;95031.00;;;27.30
15575;BMP180;7888;46.748;8.102;2022-07-09T08:15:54;95029.00;;;27.40
15575;BMP180;7888;46.748;8.102;2022-07-09T08:18:20;95031.00;;;27.40
15575;BMP180;7888;46.748;8.102;2022-07-09T08:20:46;95021.00;;;27.50
15575;BMP180;7888;46.748;8.102;2022-07-09T08:23:14;95023.00;;;27.50
15575;BMP180;7888;46.748;8.102;2022-07-09T08:25:40;95013.00;;;27.60
15575;BMP180;7888;46.748;8.102;2022-07-09T08:28:06;95012.00;;;27.70
15575;BMP180;7888;46.748;8.102;2022-07-09T08:30:32;95014.00;;;27.80
15575;BMP180;7888;46.748;8.102;2022-07-09T08:32:58;95004.00;;;27.80
15575;BMP180;7888;46.748;8.102;2022-07-09T08:35:24;95011.00;;;27.90
15575;BMP180;7888;46.748;8.102;2022-07-09T08:37:52;95004.00;;;28.00
